• Join FlightAware (Why Join?)
  • Login
  • US Flag 
07:46AM EDT


 

Airport Tracker/Info


-or-


 

Live Flight TrackerFlight Track Log ✈ UAL5829 ✈ 15-Apr-2013 ✈ KIAD - KORF

Flight Track Log - Related Links

Times and Time Zones

All times are in EDT time to prevent confusion due to time zone crossing. See the UAL5829 flight status page for this flight to view local times or setup timezone preferences in your user account.

Time Position Orientation Groundspeed Altitude Reporting Facility
EDT Latitude Longitude Course Direction KTS MPH feet Rate Location/Type
12:35PM 38.9500 -77.5167 125° Southeast 177 204 1,800  Level Potomac TRACON
12:36PM 39.0000 -77.5500 333° Northwest 217 250 3,700 2,100 Climbing Potomac TRACON
12:37PM 39.0833 -77.5667 351° North 260 299 6,000 2,160 Climbing Potomac TRACON
12:38PM 38.7550 -77.0932 123° Southeast  Level FlightAware Approximate
12:38PM 39.1333 -77.5333 27° Northeast 261 300 7,900  Level Potomac TRACON
12:39PM 38.7079 -77.0006 125° Southeast  Level FlightAware Approximate
12:39PM 39.1500 -77.4333 78° East 279 321 9,500  Level Potomac TRACON
12:40PM 38.6586 -76.9100 125° Southeast  Level FlightAware Approximate
12:40PM 39.1500 -77.3167 90° East 322 371 10,300  Level Potomac TRACON
12:41PM 39.1167 -77.2167 113° Southeast 342 394 11,900 1,440 Climbing Potomac TRACON
12:42PM 39.0833 -77.1000 110° East 356 410 13,300 780 Climbing Potomac TRACON
12:44PM 38.9578 -76.9450 136° Southeast 384 442 14,000 240 Climbing Washington Center
12:45PM 38.8792 -76.9036 158° South 379 436 14,000  Level Washington Center
12:46PM 38.7631 -76.8375 156° South 379 436 14,000  Level Washington Center
12:47PM 38.6656 -76.7856 157° South 379 436 14,000  Level Washington Center
12:48PM 38.5639 -76.7308 157° South 379 436 14,000  Level Washington Center
12:49PM 38.4600 -76.7133 172° South 379 436 14,000  Level Washington Center
12:50PM 38.3536 -76.6983 174° South 379 436 14,000  Level Washington Center
12:51PM 38.2578 -76.6864 174° South 386 444 14,000  Level Washington Center
12:52PM 38.1561 -76.6533 166° South 386 444 14,000 -480 Level Washington Center
12:53PM 38.0564 -76.5992 157° South 381 438 13,100 -1,020 Descending Washington Center
12:54PM 37.9589 -76.5372 153° Southeast 386 444 12,000 -600 Descending Washington Center
12:55PM 37.8653 -76.4836 156° South 386 444 12,000 -660 Level Washington Center
12:55PM 37.7886 -76.4431 157° South 351 404 10,900 -1,140 Descending Washington Center
12:56PM 37.6867 -76.3817 155° Southeast 347 399 9,900 -720 Descending Washington Center
12:58PM 37.6161 -76.3364 153° Southeast 325 374 9,400 -900 Descending Washington Center
12:58PM 37.5517 -76.3200 169° South 251 289 8,200 -1,320 Descending Washington Center
12:59PM 37.4808 -76.3064 171° South 233 268 6,900 -1,200 Descending Washington Center
01:00PM 37.4142 -76.2953 172° South 248 285 5,700 -960 Descending Washington Center
01:02PM 37.3433 -76.2789 170° South 250 288 5,000 -360 Descending Washington Center
01:02PM 37.2722 -76.2678 173° South 248 285 5,000  Level Washington Center
01:04PM 37.2078 -76.2542 170° South 256 295 5,000  Level Washington Center
01:04PM 37.1889 -76.2567 186° South 249 287 5,000  Level Washington Center
01:05PM 37.1306 -76.2458 172° South 249 287 5,000  Level Washington Center
01:06PM 37.0578 -76.2322 172° South 249 287 5,000  Level Washington Center
01:07PM 36.9908 -76.2419 187° South 261 300 5,000  Level Washington Center
01:08PM 36.9344 -76.2728 204° Southwest 241 277 5,000  Level Washington Center